Smiths Park, South Dakota
Current Conditions -  °F | °C
As of 8:15 AM on Thursday 30 Oct 2014 (Local Time) from KMDS Reporting Station
Clear Clear  
Wind Chill: 28°   Ceiling: Unl
Heat Index: 36°   Visibility: 10mi
Dew Point: 36°   Wind: 12mph
Humidity: 100%   Direction: 330°NNW
Pressure: 30.03"   Gusts: NA
Location:  43.9868°N, 96.9457°W
Report Text: KMDS 301315Z AUTO 33010KT 10SM CLR 02/02 A3003 RMK AO2
Loading
Personal Weather Stations






























Interactive Weather Map
Tropical Storm Tracking
New forecast layout! Learn more

10-Day Weather Forecast

Advertisements
Track Severe Weather on mobile